Ackley, Iowa
Current Conditions -  °F | °C
As of 9:15 PM on Thursday 27 Nov 2014 (Local Time) from KIFA Reporting Station
Light Snow Light Snow  
Wind Chill: -20°   Ceiling: 2900
Heat Index: -13°   Visibility: 7mi
Dew Point: -16°   Wind: 9mph
Humidity: 78%   Direction: 150°SSE
Pressure: 30.34"   Gusts: NA
Location:  42.55°N, 93.05°W
Report Text: KIFA 280315Z AUTO 15008KT 7SM -SN SCT024 BKN029 OVC050 M13/M16 A3034 RMK AO2 T11301161
Loading
Personal Weather Stations






























Interactive Weather Map New forecast layout! Learn more

10-Day Weather Forecast

Advertisements
Track Severe Weather on mobile